createdAt,value
2022-07-29T00:02:16.869Z,19.94
2022-07-29T00:04:44.874Z,19.96
2022-07-29T00:07:12.939Z,20.05
2022-07-29T00:09:51.122Z,20.07
2022-07-29T00:12:26.326Z,20.05
2022-07-29T00:14:55.563Z,19.90
2022-07-29T00:17:23.613Z,20.19
2022-07-29T00:19:51.644Z,20.18
2022-07-29T00:22:19.868Z,20.27
2022-07-29T00:24:49.351Z,20.14
2022-07-29T00:27:18.629Z,19.94
2022-07-29T00:29:47.879Z,19.83
2022-07-29T00:32:15.858Z,19.78
2022-07-29T00:35:01.356Z,19.73
2022-07-29T00:37:29.652Z,19.64
2022-07-29T00:39:57.794Z,19.53
2022-07-29T00:42:25.762Z,19.52
2022-07-29T00:44:55.197Z,19.18
2022-07-29T00:47:23.066Z,19.50
2022-07-29T00:49:51.000Z,19.64
2022-07-29T00:52:18.914Z,19.77
2022-07-29T00:54:47.041Z,19.84
2022-07-29T00:57:15.308Z,19.88
2022-07-29T00:59:43.334Z,19.70
2022-07-29T01:02:12.904Z,19.98
2022-07-29T01:04:42.631Z,19.88
2022-07-29T01:07:10.804Z,19.67
2022-07-29T01:09:45.912Z,19.81
2022-07-29T01:12:17.296Z,19.80
2022-07-29T01:14:45.577Z,19.77
2022-07-29T01:17:23.269Z,19.67
2022-07-29T01:19:59.117Z,19.56
2022-07-29T01:22:33.901Z,19.54
2022-07-29T01:25:14.162Z,19.38
2022-07-29T01:27:53.593Z,19.33
2022-07-29T01:30:24.769Z,19.34
2022-07-29T01:33:01.081Z,19.37
2022-07-29T01:35:35.795Z,19.30
2022-07-29T01:38:10.508Z,19.12
2022-07-29T01:40:43.232Z,18.96
2022-07-29T01:43:14.204Z,18.72
2022-07-29T01:45:47.369Z,18.78
2022-07-29T01:48:20.249Z,18.81
2022-07-29T01:50:51.453Z,18.81
2022-07-29T01:53:25.717Z,18.86
2022-07-29T01:55:55.009Z,18.77
2022-07-29T01:58:27.961Z,18.60
2022-07-29T02:00:59.357Z,18.33
2022-07-29T02:03:29.039Z,18.67
2022-07-29T02:06:00.392Z,18.48
2022-07-29T02:08:29.928Z,18.56
2022-07-29T02:10:58.720Z,18.71
2022-07-29T02:13:28.176Z,18.84
2022-07-29T02:15:58.785Z,19.03
2022-07-29T02:18:30.164Z,18.99
2022-07-29T02:21:00.709Z,18.98
2022-07-29T02:23:28.997Z,18.96
2022-07-29T02:25:59.096Z,19.12
2022-07-29T02:28:29.682Z,19.16
2022-07-29T02:31:02.929Z,19.17
2022-07-29T02:33:33.788Z,19.16
2022-07-29T02:36:03.244Z,19.02
2022-07-29T02:38:50.100Z,18.88
2022-07-29T02:41:20.881Z,18.72
2022-07-29T02:43:50.873Z,18.68
2022-07-29T02:46:29.207Z,18.70
2022-07-29T02:49:04.194Z,18.65
2022-07-29T02:51:44.695Z,18.67
2022-07-29T02:54:16.858Z,18.69
2022-07-29T02:56:48.509Z,18.74
2022-07-29T02:59:18.945Z,18.67
2022-07-29T03:01:49.190Z,18.62
2022-07-29T03:04:20.087Z,18.58
2022-07-29T03:06:48.997Z,18.57
2022-07-29T03:09:17.139Z,18.55
2022-07-29T03:11:50.526Z,18.42
2022-07-29T03:14:21.244Z,18.58
2022-07-29T03:16:52.111Z,18.46
2022-07-29T03:19:21.330Z,18.56
2022-07-29T03:21:50.076Z,18.48
2022-07-29T03:24:31.872Z,18.43
2022-07-29T03:27:00.590Z,18.39
2022-07-29T03:29:33.257Z,18.35
2022-07-29T03:32:07.360Z,18.26
2022-07-29T03:34:37.668Z,18.31
2022-07-29T03:37:06.838Z,18.30
2022-07-29T03:39:41.498Z,18.33
2022-07-29T03:42:12.618Z,18.17
2022-07-29T03:44:43.670Z,18.19
2022-07-29T03:47:15.927Z,18.06
2022-07-29T03:49:46.593Z,18.09
2022-07-29T03:52:14.787Z,18.15
2022-07-29T03:54:42.871Z,18.13
2022-07-29T03:57:15.639Z,18.10
2022-07-29T03:59:44.808Z,18.17
2022-07-29T04:02:18.844Z,18.21
2022-07-29T04:04:49.828Z,18.33
2022-07-29T04:07:17.980Z,18.35
2022-07-29T04:09:45.849Z,18.43
2022-07-29T04:12:13.761Z,18.48
2022-07-29T04:14:41.620Z,18.45
2022-07-29T04:17:09.702Z,18.77
2022-07-29T04:19:38.984Z,18.98
2022-07-29T04:22:06.921Z,18.95
2022-07-29T04:24:34.804Z,19.12
2022-07-29T04:27:02.728Z,19.23
2022-07-29T04:29:30.632Z,19.30
2022-07-29T04:31:58.537Z,19.23
2022-07-29T04:34:28.147Z,19.37
2022-07-29T04:36:57.642Z,19.41
2022-07-29T04:39:25.610Z,19.49
2022-07-29T04:41:57.458Z,19.55
2022-07-29T04:44:28.626Z,19.69
2022-07-29T04:46:58.474Z,19.52
2022-07-29T04:49:26.512Z,19.84
2022-07-29T04:51:54.552Z,19.78
2022-07-29T04:54:24.286Z,20.12
2022-07-29T04:56:53.415Z,20.47
2022-07-29T04:59:22.458Z,21.33
2022-07-29T05:01:50.392Z,21.91
2022-07-29T05:04:21.465Z,21.79
2022-07-29T05:06:49.487Z,22.23
2022-07-29T05:09:17.420Z,22.34
2022-07-29T05:11:46.684Z,22.30
2022-07-29T05:14:14.969Z,22.42
2022-07-29T05:16:44.436Z,22.97
2022-07-29T05:19:14.383Z,22.86
2022-07-29T05:21:43.027Z,23.08
2022-07-29T05:24:10.888Z,23.48
2022-07-29T05:26:38.837Z,24.60
2022-07-29T05:29:08.239Z,25.33
2022-07-29T05:31:56.128Z,24.19
2022-07-29T05:34:24.797Z,23.25
2022-07-29T05:36:52.834Z,23.80
2022-07-29T05:39:20.734Z,24.79
2022-07-29T05:41:51.941Z,25.44
2022-07-29T05:44:21.405Z,25.86
2022-07-29T05:46:53.347Z,25.48
2022-07-29T05:49:23.062Z,25.85
2022-07-29T05:51:55.332Z,25.87
2022-07-29T05:54:23.294Z,26.24
2022-07-29T05:56:51.310Z,26.16
2022-07-29T05:59:19.189Z,26.00
2022-07-29T06:01:48.588Z,25.62
2022-07-29T06:04:16.856Z,26.26
2022-07-29T06:06:45.114Z,26.84
2022-07-29T06:09:14.366Z,27.11
2022-07-29T06:11:42.585Z,26.82
2022-07-29T06:14:10.629Z,27.01
2022-07-29T06:16:39.142Z,27.13
2022-07-29T06:19:08.601Z,27.26
2022-07-29T06:21:38.722Z,27.14
2022-07-29T06:24:10.667Z,26.78
2022-07-29T06:26:39.978Z,27.16
2022-07-29T06:29:08.993Z,27.19
2022-07-29T06:31:37.049Z,26.41
2022-07-29T06:34:05.415Z,27.15
2022-07-29T06:36:37.100Z,27.30
2022-07-29T06:39:07.814Z,27.09
2022-07-29T06:41:36.516Z,27.13
2022-07-29T06:44:05.616Z,27.07
2022-07-29T06:46:33.909Z,27.07
2022-07-29T06:49:03.450Z,27.45
2022-07-29T06:51:31.692Z,28.01
2022-07-29T06:54:03.412Z,28.61
2022-07-29T06:56:39.407Z,28.54
2022-07-29T06:59:09.301Z,28.84
2022-07-29T07:01:38.726Z,28.78
2022-07-29T07:04:06.819Z,28.42
2022-07-29T07:06:34.808Z,28.37
2022-07-29T07:09:04.189Z,29.11
2022-07-29T07:11:32.124Z,28.76
2022-07-29T07:14:03.359Z,28.26
2022-07-29T07:16:31.979Z,28.31
2022-07-29T07:19:00.184Z,28.54
2022-07-29T07:21:30.233Z,28.88
2022-07-29T07:23:58.718Z,28.93
2022-07-29T07:26:28.240Z,29.03
2022-07-29T07:28:56.177Z,29.15
2022-07-29T07:31:24.183Z,29.62
2022-07-29T07:33:52.694Z,28.59
2022-07-29T07:36:20.605Z,28.96
2022-07-29T07:38:48.525Z,28.97
2022-07-29T07:41:16.855Z,29.23
2022-07-29T07:43:46.128Z,29.57
2022-07-29T07:46:14.074Z,29.96
2022-07-29T07:48:42.062Z,29.71
2022-07-29T07:51:10.027Z,29.51
2022-07-29T07:53:37.936Z,29.64
2022-07-29T07:56:10.816Z,29.29
2022-07-29T07:58:40.538Z,29.80
2022-07-29T08:01:10.676Z,30.08
2022-07-29T08:03:39.883Z,29.73
2022-07-29T08:06:07.957Z,29.58
2022-07-29T08:08:35.953Z,29.83
2022-07-29T08:11:09.427Z,29.83
2022-07-29T08:13:38.746Z,29.89
2022-07-29T08:16:17.497Z,30.26
2022-07-29T08:18:47.987Z,30.79
2022-07-29T08:21:17.508Z,31.56
2022-07-29T08:23:59.588Z,31.77
2022-07-29T08:26:28.812Z,31.40
2022-07-29T08:28:56.755Z,30.58
2022-07-29T08:31:24.760Z,30.47
2022-07-29T08:33:54.023Z,30.97
2022-07-29T08:36:23.013Z,30.84
2022-07-29T08:38:52.009Z,30.40
2022-07-29T08:41:21.140Z,30.66
2022-07-29T08:43:49.245Z,30.98
2022-07-29T08:46:18.127Z,31.27
2022-07-29T08:48:46.833Z,31.84
2022-07-29T08:51:18.518Z,32.32
2022-07-29T08:53:49.296Z,31.99
2022-07-29T08:56:19.066Z,31.88
2022-07-29T08:58:50.710Z,31.60
2022-07-29T09:01:35.911Z,31.71
2022-07-29T09:04:07.959Z,32.40
2022-07-29T09:06:41.434Z,32.53
2022-07-29T09:09:10.365Z,32.69
2022-07-29T09:11:38.596Z,32.85
2022-07-29T09:14:06.718Z,32.04
2022-07-29T09:16:55.557Z,31.98
2022-07-29T09:19:25.240Z,31.98
2022-07-29T09:22:03.231Z,32.60
2022-07-29T09:24:45.421Z,31.73
2022-07-29T09:27:22.707Z,30.79
2022-07-29T09:29:58.661Z,31.61
2022-07-29T09:32:27.246Z,32.64
2022-07-29T09:35:16.217Z,33.10
2022-07-29T09:37:46.104Z,33.35
2022-07-29T09:40:16.850Z,33.72
2022-07-29T09:42:45.781Z,33.71
2022-07-29T09:45:13.991Z,33.70
2022-07-29T09:47:49.812Z,33.46
2022-07-29T09:50:20.756Z,33.26
2022-07-29T09:52:51.984Z,33.09
2022-07-29T09:55:20.254Z,33.19
2022-07-29T09:57:48.962Z,32.84
2022-07-29T10:00:18.873Z,33.27
2022-07-29T10:02:48.561Z,32.53
2022-07-29T10:05:22.640Z,32.77
2022-07-29T10:07:54.491Z,32.98
2022-07-29T10:10:27.353Z,32.84
2022-07-29T10:13:07.208Z,33.51
2022-07-29T10:15:40.041Z,34.27
2022-07-29T10:18:08.860Z,33.85
2022-07-29T10:20:37.805Z,33.67
2022-07-29T10:23:07.571Z,33.82
2022-07-29T10:25:35.678Z,33.42
2022-07-29T10:28:03.820Z,33.21
2022-07-29T10:30:33.002Z,33.77
2022-07-29T10:33:20.197Z,34.19
2022-07-29T10:36:18.684Z,34.43
2022-07-29T10:38:54.851Z,34.59
2022-07-29T10:41:43.912Z,34.30
2022-07-29T10:47:06.733Z,33.85
2022-07-29T10:49:35.273Z,34.46
2022-07-29T10:54:56.365Z,34.26
2022-07-29T10:57:53.303Z,34.04
2022-07-29T11:00:34.899Z,34.01
2022-07-29T11:03:04.559Z,34.22
2022-07-29T11:05:55.295Z,33.95
2022-07-29T11:08:28.030Z,33.96
2022-07-29T11:11:35.274Z,34.83
2022-07-29T11:14:06.213Z,35.43
2022-07-29T11:19:52.737Z,34.67
2022-07-29T11:22:34.879Z,35.38
2022-07-29T11:25:16.817Z,34.82
2022-07-29T11:27:46.389Z,34.43
2022-07-29T11:30:17.467Z,34.39
2022-07-29T11:32:48.675Z,34.90
2022-07-29T11:35:36.997Z,34.81
2022-07-29T11:38:27.894Z,34.59
2022-07-29T11:41:27.320Z,34.91
2022-07-29T11:43:56.775Z,34.88
2022-07-29T11:46:53.982Z,35.43
2022-07-29T11:49:32.627Z,35.09
2022-07-29T11:52:13.099Z,35.01
2022-07-29T11:54:58.109Z,35.48
2022-07-29T11:57:37.180Z,34.92
2022-07-29T12:00:10.027Z,34.78
2022-07-29T12:02:48.174Z,34.89
2022-07-29T12:05:22.308Z,34.86
2022-07-29T12:08:12.742Z,34.28
2022-07-29T12:10:43.327Z,33.18
2022-07-29T12:13:12.136Z,33.17
2022-07-29T12:15:46.298Z,33.53
2022-07-29T12:18:24.255Z,34.29
2022-07-29T12:21:03.219Z,34.17
2022-07-29T12:23:34.633Z,34.17
2022-07-29T12:26:07.595Z,33.96
2022-07-29T12:28:39.727Z,34.27
2022-07-29T12:31:08.465Z,34.01
2022-07-29T12:33:37.876Z,33.99
2022-07-29T12:36:07.020Z,33.90
2022-07-29T12:38:36.919Z,33.63
2022-07-29T12:41:05.404Z,33.00
2022-07-29T12:43:33.651Z,33.44
2022-07-29T12:46:14.782Z,33.46
2022-07-29T12:48:45.526Z,32.73
2022-07-29T12:51:15.469Z,32.68
2022-07-29T12:53:43.580Z,32.96
2022-07-29T12:56:41.783Z,33.22
2022-07-29T12:59:14.972Z,33.28
2022-07-29T13:01:43.015Z,33.22
2022-07-29T13:04:12.362Z,33.09
2022-07-29T13:06:46.091Z,33.01
2022-07-29T13:09:20.551Z,32.97
2022-07-29T13:11:50.423Z,32.91
2022-07-29T13:14:33.935Z,33.14
2022-07-29T13:17:03.862Z,33.22
2022-07-29T13:19:38.340Z,32.98
2022-07-29T13:22:07.066Z,33.09
2022-07-29T13:24:35.032Z,32.80
2022-07-29T13:27:05.590Z,32.73
2022-07-29T13:29:34.139Z,32.96
2022-07-29T13:32:02.185Z,33.12
2022-07-29T13:34:30.037Z,33.41
2022-07-29T13:36:59.326Z,33.74
2022-07-29T13:39:27.249Z,34.11
2022-07-29T13:41:55.460Z,34.17
2022-07-29T13:44:25.420Z,34.66
2022-07-29T13:46:53.320Z,34.63
2022-07-29T13:49:21.321Z,34.24
2022-07-29T13:51:49.252Z,32.82
2022-07-29T13:54:18.825Z,32.47
2022-07-29T13:56:46.740Z,32.15
2022-07-29T13:59:15.156Z,32.22
2022-07-29T14:01:43.584Z,32.25
2022-07-29T14:04:13.869Z,32.28
2022-07-29T14:06:41.831Z,32.32
2022-07-29T14:09:10.161Z,32.15
2022-07-29T14:11:39.713Z,32.27
2022-07-29T14:14:07.676Z,31.44
2022-07-29T14:16:39.224Z,32.11
2022-07-29T14:19:11.032Z,31.61
2022-07-29T14:21:39.663Z,31.93
2022-07-29T14:24:16.287Z,32.00
2022-07-29T14:26:50.824Z,31.69
2022-07-29T14:29:18.772Z,31.66
2022-07-29T14:31:46.741Z,31.69
2022-07-29T14:34:16.425Z,31.56
2022-07-29T14:36:44.733Z,31.73
2022-07-29T14:39:12.692Z,31.62
2022-07-29T14:41:40.586Z,31.71
2022-07-29T14:44:09.909Z,31.69
2022-07-29T14:46:37.808Z,31.67
2022-07-29T14:49:06.606Z,31.68
2022-07-29T14:51:37.408Z,31.63
2022-07-29T14:54:05.563Z,31.76
2022-07-29T14:56:37.107Z,31.75
2022-07-29T14:59:06.821Z,31.68
2022-07-29T15:01:36.289Z,31.75
2022-07-29T15:04:04.392Z,31.72
2022-07-29T15:06:32.299Z,31.79
2022-07-29T15:09:00.176Z,31.58
2022-07-29T15:11:28.038Z,31.72
2022-07-29T15:13:55.908Z,31.72
2022-07-29T15:16:23.848Z,31.63
2022-07-29T15:18:53.260Z,31.54
2022-07-29T15:21:21.179Z,31.62
2022-07-29T15:23:49.112Z,31.52
2022-07-29T15:26:17.039Z,31.54
2022-07-29T15:28:44.916Z,31.63
2022-07-29T15:31:13.036Z,31.59
2022-07-29T15:33:42.025Z,31.34
2022-07-29T15:36:25.400Z,31.32
2022-07-29T15:39:00.597Z,31.60
2022-07-29T15:41:28.499Z,31.65
2022-07-29T15:43:56.383Z,31.68
2022-07-29T15:46:41.859Z,31.54
2022-07-29T15:49:10.207Z,31.50
2022-07-29T15:51:39.541Z,31.61
2022-07-29T15:54:07.496Z,31.55
2022-07-29T15:56:35.485Z,31.60
2022-07-29T15:59:03.895Z,31.56
2022-07-29T16:01:31.829Z,31.55
2022-07-29T16:04:00.017Z,31.35
2022-07-29T16:06:28.193Z,31.20
2022-07-29T16:08:58.821Z,31.14
2022-07-29T16:11:26.684Z,31.07
2022-07-29T16:13:55.089Z,30.81
2022-07-29T16:16:23.669Z,30.85
2022-07-29T16:18:51.775Z,30.85
2022-07-29T16:21:19.913Z,30.68
2022-07-29T16:23:47.848Z,30.55
2022-07-29T16:26:17.105Z,30.43
2022-07-29T16:28:50.472Z,30.36
2022-07-29T16:31:22.909Z,30.28
2022-07-29T16:33:54.972Z,30.29
2022-07-29T16:36:24.112Z,30.22
2022-07-29T16:38:52.125Z,30.09
2022-07-29T16:41:21.393Z,30.02
2022-07-29T16:43:49.447Z,30.00
2022-07-29T16:46:19.237Z,29.90
2022-07-29T16:48:48.000Z,29.91
2022-07-29T16:51:16.649Z,29.81
2022-07-29T16:53:44.958Z,29.75
2022-07-29T16:56:13.183Z,29.69
2022-07-29T16:58:44.051Z,29.70
2022-07-29T17:01:12.253Z,29.66
2022-07-29T17:04:00.887Z,29.56
2022-07-29T17:06:29.597Z,29.32
2022-07-29T17:08:57.991Z,29.55
2022-07-29T17:11:51.913Z,29.54
2022-07-29T17:14:15.125Z,29.47
2022-07-29T17:16:43.051Z,29.43
2022-07-29T17:19:29.848Z,29.42
2022-07-29T17:22:05.050Z,29.35
2022-07-29T17:24:38.989Z,29.24
2022-07-29T17:27:08.285Z,29.18
2022-07-29T17:29:37.636Z,29.08
2022-07-29T17:32:07.789Z,28.99
2022-07-29T17:34:36.309Z,28.68
2022-07-29T17:37:04.596Z,28.66
2022-07-29T17:39:32.857Z,28.81
2022-07-29T17:42:01.824Z,28.40
2022-07-29T17:44:29.740Z,28.67
2022-07-29T17:46:59.309Z,28.63
2022-07-29T17:49:28.222Z,28.50
2022-07-29T17:52:00.633Z,28.48
2022-07-29T17:54:28.988Z,28.40
2022-07-29T17:56:57.394Z,28.30
2022-07-29T17:59:25.472Z,28.10
2022-07-29T18:01:53.393Z,28.19
2022-07-29T18:04:23.591Z,28.20
2022-07-29T18:06:51.832Z,28.13
2022-07-29T18:09:19.910Z,28.14
2022-07-29T18:11:48.871Z,28.08
2022-07-29T18:14:17.040Z,27.95
2022-07-29T18:16:45.099Z,27.90
2022-07-29T18:19:13.155Z,27.86
2022-07-29T18:21:51.889Z,27.87
2022-07-29T18:24:25.368Z,27.81
2022-07-29T18:26:53.657Z,27.75
2022-07-29T18:29:21.603Z,27.52
2022-07-29T18:31:49.629Z,27.69
2022-07-29T18:34:17.872Z,27.67
2022-07-29T18:36:47.257Z,27.60
2022-07-29T18:39:19.680Z,27.71
2022-07-29T18:41:50.283Z,27.66
2022-07-29T18:44:22.101Z,27.64
2022-07-29T18:46:51.144Z,27.57
2022-07-29T18:49:19.442Z,27.52
2022-07-29T18:51:48.896Z,27.46
2022-07-29T18:54:17.483Z,27.37
2022-07-29T18:56:46.145Z,27.31
2022-07-29T18:59:16.921Z,27.26
2022-07-29T19:01:45.061Z,27.16
2022-07-29T19:04:13.053Z,27.10
2022-07-29T19:06:41.520Z,26.86
2022-07-29T19:09:11.240Z,26.93
2022-07-29T19:11:39.745Z,26.88
2022-07-29T19:14:08.330Z,26.86
2022-07-29T19:16:36.388Z,26.79
2022-07-29T19:19:04.786Z,26.81
2022-07-29T19:21:32.748Z,26.69
2022-07-29T19:24:06.302Z,26.75
2022-07-29T19:26:42.076Z,26.70
2022-07-29T19:29:10.046Z,26.32
2022-07-29T19:31:38.028Z,26.59
2022-07-29T19:34:05.934Z,26.52
2022-07-29T19:36:34.350Z,26.34
2022-07-29T19:39:03.346Z,26.44
2022-07-29T19:41:31.529Z,26.37
2022-07-29T19:44:00.878Z,26.32
2022-07-29T19:46:29.252Z,26.29
2022-07-29T19:48:57.693Z,26.25
2022-07-29T19:51:25.614Z,26.01
2022-07-29T19:53:53.589Z,26.03
2022-07-29T19:56:21.515Z,26.22
2022-07-29T19:58:52.067Z,26.23
2022-07-29T20:01:22.238Z,26.20
2022-07-29T20:03:50.268Z,26.16
2022-07-29T20:06:18.315Z,26.11
2022-07-29T20:08:46.319Z,26.09
2022-07-29T20:11:14.328Z,26.07
2022-07-29T20:13:42.214Z,26.01
2022-07-29T20:16:10.123Z,25.98
2022-07-29T20:18:39.430Z,25.94
2022-07-29T20:21:07.365Z,25.84
2022-07-29T20:23:35.382Z,25.64
2022-07-29T20:26:06.096Z,25.61
2022-07-29T20:28:37.186Z,25.54
2022-07-29T20:31:05.142Z,25.47
2022-07-29T20:33:33.083Z,25.43
2022-07-29T20:36:02.375Z,25.37
2022-07-29T20:38:30.700Z,25.32
2022-07-29T20:40:58.897Z,25.26
2022-07-29T20:43:27.304Z,25.20
2022-07-29T20:45:55.237Z,25.06
2022-07-29T20:48:23.162Z,25.08
2022-07-29T20:50:51.499Z,25.03
2022-07-29T20:53:20.765Z,24.97
2022-07-29T20:55:48.809Z,24.97
2022-07-29T20:58:16.692Z,24.96
2022-07-29T21:00:44.691Z,24.92
2022-07-29T21:03:12.612Z,24.84
2022-07-29T21:05:43.299Z,24.75
2022-07-29T21:08:12.189Z,24.66
2022-07-29T21:10:41.500Z,24.62
2022-07-29T21:13:09.601Z,24.53
2022-07-29T21:15:38.060Z,24.40
2022-07-29T21:18:16.188Z,24.34
2022-07-29T21:20:44.080Z,24.25
2022-07-29T21:23:11.971Z,24.19
2022-07-29T21:25:41.285Z,24.11
2022-07-29T21:28:27.804Z,24.02
2022-07-29T21:30:56.796Z,23.78
2022-07-29T21:33:24.957Z,23.88
2022-07-29T21:38:41.512Z,23.76
2022-07-29T21:41:12.618Z,23.67
2022-07-29T21:43:42.273Z,23.66
2022-07-29T21:46:10.526Z,23.63
2022-07-29T21:48:43.890Z,23.58
2022-07-29T21:51:12.516Z,23.52
2022-07-29T21:53:40.477Z,23.43
2022-07-29T21:56:14.506Z,23.13
2022-07-29T21:58:43.268Z,23.19
2022-07-29T22:01:11.201Z,23.30
2022-07-29T22:03:39.158Z,23.23
2022-07-29T22:06:07.232Z,23.23
2022-07-29T22:08:35.133Z,23.22
2022-07-29T22:11:03.007Z,23.22
2022-07-29T22:13:32.238Z,23.27
2022-07-29T22:16:00.124Z,23.34
2022-07-29T22:18:28.302Z,23.44
2022-07-29T22:20:56.774Z,23.37
2022-07-29T22:23:24.671Z,23.44
2022-07-29T22:25:52.880Z,23.46
2022-07-29T22:28:20.750Z,23.24
2022-07-29T22:30:50.041Z,23.49
2022-07-29T22:33:18.316Z,23.52
2022-07-29T22:35:48.874Z,23.61
2022-07-29T22:38:17.404Z,23.63
2022-07-29T22:40:45.318Z,23.67
2022-07-29T22:43:13.242Z,23.40
2022-07-29T22:45:41.209Z,23.36
2022-07-29T22:48:10.563Z,23.75
2022-07-29T22:50:39.528Z,23.82
2022-07-29T22:53:07.443Z,23.80
2022-07-29T22:55:35.376Z,23.78
2022-07-29T22:58:03.232Z,23.80
2022-07-29T23:00:31.353Z,23.84
2022-07-29T23:02:59.477Z,23.83
2022-07-29T23:05:28.765Z,23.80
2022-07-29T23:07:56.664Z,23.78
2022-07-29T23:10:24.583Z,23.56
2022-07-29T23:12:52.511Z,23.60
2022-07-29T23:15:20.624Z,23.77
2022-07-29T23:17:48.518Z,23.52
2022-07-29T23:20:16.424Z,23.70
2022-07-29T23:22:45.700Z,23.68
2022-07-29T23:25:13.585Z,23.67
2022-07-29T23:27:41.792Z,23.67
2022-07-29T23:30:10.954Z,23.64
2022-07-29T23:32:38.861Z,23.66
2022-07-29T23:35:08.485Z,23.65
2022-07-29T23:37:36.645Z,23.51
2022-07-29T23:40:09.673Z,23.58
2022-07-29T23:42:40.228Z,23.53
2022-07-29T23:45:09.593Z,23.51
2022-07-29T23:47:37.453Z,23.43
2022-07-29T23:50:05.621Z,23.41
2022-07-29T23:52:33.601Z,23.36
2022-07-29T23:55:37.546Z,23.29
2022-07-29T23:57:53.217Z,23.26
